Hovedside
METAR-TAF:

METAR-TAF

Lufthavner :

Kristiansand lufthavn. Kjevik

Kristiansand, Norge

breddegrad: 58-12N, lengdegrad: 008-05E, høyde over havet: 1 m

Gjeldene værobservasjon

Denne rapporten ble laget for 21 minutter siden, klokken 06:20 UTC
Vind 3 kt fra Nordøst
Temperatur 3°C
Luftfuktighet 100%
Trykk 1008 hPa
Sikt 10 km eller mer
Brutte skyer i en høyde av 1700 ft

METAR: ENCN 170620Z 04003KT 9999 BKN017 03/03 Q1008

Tid: 07:41 (06:41 UTC)

Varsel

Denne rapporten ble laget for 1 time og 41 minutter siden, klokken 05:00 UTC
Varsel gyldig fra 17. klokken 06 UTC til 17. klokken 15 UTC
Vind 5 kt fra skiftende retning
Sikt 10 km eller mer
Brutte skyer i en høyde av 2500 ft

TAF: ENCN 170500Z 1706/1715 VRB05KT 9999 BKN025

Værobservasjoner og værvarsel for over 4000 flyplasser (METAR- og TAF-rapporter).

Tilgjengelige stasjoner er representert av de røde og gule prikkene på kartet.

Hold musepekeren over prikken for å se navnet på stasjonen.

Klikk så for å se værobservasjoner og -varsler.

For å forandre kartet kan du klikke på den grønne knappen med svart kryss for å zoome inn, på den grønne knappen med strek for å zoome ut, eller på de grønne pilene for å se tilstøtende kart.


METAR-TAF: